sensor_id;sensor_type;location;lat;lon;timestamp;temperature;humidity
5689;DHT22;2869;50.432;8.680;2023-03-14T00:00:57;10.50;99.90
5689;DHT22;2869;50.432;8.680;2023-03-14T00:03:24;10.50;99.90
5689;DHT22;2869;50.432;8.680;2023-03-14T00:05:51;10.50;99.90
5689;DHT22;2869;50.432;8.680;2023-03-14T00:08:18;10.50;99.90
5689;DHT22;2869;50.432;8.680;2023-03-14T00:10:46;10.50;99.90
5689;DHT22;2869;50.432;8.680;2023-03-14T00:13:13;10.50;99.90
5689;DHT22;2869;50.432;8.680;2023-03-14T00:15:39;10.50;99.90
5689;DHT22;2869;50.432;8.680;2023-03-14T00:18:07;10.50;99.90
5689;DHT22;2869;50.432;8.680;2023-03-14T00:20:34;10.50;99.90
5689;DHT22;2869;50.432;8.680;2023-03-14T00:23:01;10.60;99.90
5689;DHT22;2869;50.432;8.680;2023-03-14T00:25:28;10.60;99.90
5689;DHT22;2869;50.432;8.680;2023-03-14T00:27:54;10.60;99.90
5689;DHT22;2869;50.432;8.680;2023-03-14T00:30:21;10.50;99.90
5689;DHT22;2869;50.432;8.680;2023-03-14T00:32:47;10.50;99.90
5689;DHT22;2869;50.432;8.680;2023-03-14T00:35:16;10.50;99.90
5689;DHT22;2869;50.432;8.680;2023-03-14T00:37:42;10.50;99.90
5689;DHT22;2869;50.432;8.680;2023-03-14T00:40:10;10.50;99.90
5689;DHT22;2869;50.432;8.680;2023-03-14T00:42:36;10.50;99.90
5689;DHT22;2869;50.432;8.680;2023-03-14T00:45:04;10.50;99.90
5689;DHT22;2869;50.432;8.680;2023-03-14T00:47:31;10.50;99.90
5689;DHT22;2869;50.432;8.680;2023-03-14T00:49:58;10.50;99.90
5689;DHT22;2869;50.432;8.680;2023-03-14T00:52:26;10.50;99.90
5689;DHT22;2869;50.432;8.680;2023-03-14T00:54:52;10.50;99.90
5689;DHT22;2869;50.432;8.680;2023-03-14T00:57:19;10.50;99.90
5689;DHT22;2869;50.432;8.680;2023-03-14T00:59:46;10.40;99.90
5689;DHT22;2869;50.432;8.680;2023-03-14T01:02:12;10.40;99.90
5689;DHT22;2869;50.432;8.680;2023-03-14T01:04:39;10.40;99.90
5689;DHT22;2869;50.432;8.680;2023-03-14T01:07:08;10.40;99.90
5689;DHT22;2869;50.432;8.680;2023-03-14T01:09:36;10.30;99.90
5689;DHT22;2869;50.432;8.680;2023-03-14T01:12:03;10.30;99.90
5689;DHT22;2869;50.432;8.680;2023-03-14T01:14:30;10.20;99.90
5689;DHT22;2869;50.432;8.680;2023-03-14T01:16:56;10.20;99.90
5689;DHT22;2869;50.432;8.680;2023-03-14T01:19:26;10.10;99.90
5689;DHT22;2869;50.432;8.680;2023-03-14T01:21:53;10.10;99.90
5689;DHT22;2869;50.432;8.680;2023-03-14T01:24:19;10.00;99.90
5689;DHT22;2869;50.432;8.680;2023-03-14T01:26:47;10.00;99.90
5689;DHT22;2869;50.432;8.680;2023-03-14T01:29:14;10.00;99.90
5689;DHT22;2869;50.432;8.680;2023-03-14T01:31:41;10.00;99.90
5689;DHT22;2869;50.432;8.680;2023-03-14T01:34:07;10.00;99.90
5689;DHT22;2869;50.432;8.680;2023-03-14T01:36:34;10.00;99.90
5689;DHT22;2869;50.432;8.680;2023-03-14T01:39:00;10.00;99.90
5689;DHT22;2869;50.432;8.680;2023-03-14T01:41:27;9.90;99.90
5689;DHT22;2869;50.432;8.680;2023-03-14T01:43:55;9.90;99.90
5689;DHT22;2869;50.432;8.680;2023-03-14T01:46:29;9.90;99.90
5689;DHT22;2869;50.432;8.680;2023-03-14T01:49:01;9.90;99.90
5689;DHT22;2869;50.432;8.680;2023-03-14T01:51:33;9.90;99.90
5689;DHT22;2869;50.432;8.680;2023-03-14T01:54:10;9.90;99.90
5689;DHT22;2869;50.432;8.680;2023-03-14T01:56:39;9.90;99.90
5689;DHT22;2869;50.432;8.680;2023-03-14T01:59:10;9.90;99.90
5689;DHT22;2869;50.432;8.680;2023-03-14T02:01:38;9.90;99.90
5689;DHT22;2869;50.432;8.680;2023-03-14T02:04:07;9.90;99.90
5689;DHT22;2869;50.432;8.680;2023-03-14T02:06:42;9.90;99.90
5689;DHT22;2869;50.432;8.680;2023-03-14T02:09:11;9.90;99.90
5689;DHT22;2869;50.432;8.680;2023-03-14T02:11:38;9.90;99.90
5689;DHT22;2869;50.432;8.680;2023-03-14T02:14:05;9.90;99.90
5689;DHT22;2869;50.432;8.680;2023-03-14T02:16:34;9.90;99.90
5689;DHT22;2869;50.432;8.680;2023-03-14T02:19:01;9.90;99.90
5689;DHT22;2869;50.432;8.680;2023-03-14T02:21:38;9.90;99.90
5689;DHT22;2869;50.432;8.680;2023-03-14T02:24:14;9.90;99.90
5689;DHT22;2869;50.432;8.680;2023-03-14T02:29:41;9.80;99.90
5689;DHT22;2869;50.432;8.680;2023-03-14T02:32:10;9.90;99.90
5689;DHT22;2869;50.432;8.680;2023-03-14T02:34:37;9.90;99.90
5689;DHT22;2869;50.432;8.680;2023-03-14T02:37:04;9.90;99.90
5689;DHT22;2869;50.432;8.680;2023-03-14T02:39:36;9.80;99.90
5689;DHT22;2869;50.432;8.680;2023-03-14T02:42:04;9.80;99.90
5689;DHT22;2869;50.432;8.680;2023-03-14T02:44:30;9.80;99.90
5689;DHT22;2869;50.432;8.680;2023-03-14T02:46:58;9.80;99.90
5689;DHT22;2869;50.432;8.680;2023-03-14T02:49:26;9.80;99.90
5689;DHT22;2869;50.432;8.680;2023-03-14T02:51:55;9.80;99.90
5689;DHT22;2869;50.432;8.680;2023-03-14T02:54:21;9.80;99.90
5689;DHT22;2869;50.432;8.680;2023-03-14T02:56:48;9.80;99.90
5689;DHT22;2869;50.432;8.680;2023-03-14T02:59:15;9.90;99.90
5689;DHT22;2869;50.432;8.680;2023-03-14T03:01:41;9.90;99.90
5689;DHT22;2869;50.432;8.680;2023-03-14T03:04:09;9.80;99.90
5689;DHT22;2869;50.432;8.680;2023-03-14T03:06:36;9.80;99.90
5689;DHT22;2869;50.432;8.680;2023-03-14T03:09:03;9.80;99.90
5689;DHT22;2869;50.432;8.680;2023-03-14T03:11:30;9.80;99.90
5689;DHT22;2869;50.432;8.680;2023-03-14T03:13:57;9.80;99.90
5689;DHT22;2869;50.432;8.680;2023-03-14T03:16:23;9.80;99.90
5689;DHT22;2869;50.432;8.680;2023-03-14T03:18:50;9.80;99.90
5689;DHT22;2869;50.432;8.680;2023-03-14T03:21:18;9.80;99.90
5689;DHT22;2869;50.432;8.680;2023-03-14T03:23:48;9.70;99.90
5689;DHT22;2869;50.432;8.680;2023-03-14T03:26:15;9.80;99.90
5689;DHT22;2869;50.432;8.680;2023-03-14T03:28:41;9.80;99.90
5689;DHT22;2869;50.432;8.680;2023-03-14T03:31:09;9.80;99.90
5689;DHT22;2869;50.432;8.680;2023-03-14T03:33:36;9.80;99.90
5689;DHT22;2869;50.432;8.680;2023-03-14T03:36:03;9.70;99.90
5689;DHT22;2869;50.432;8.680;2023-03-14T03:38:31;9.80;99.90
5689;DHT22;2869;50.432;8.680;2023-03-14T03:40:57;9.70;99.90
5689;DHT22;2869;50.432;8.680;2023-03-14T03:43:24;9.70;99.90
5689;DHT22;2869;50.432;8.680;2023-03-14T03:45:51;9.70;99.90
5689;DHT22;2869;50.432;8.680;2023-03-14T03:48:17;9.70;99.90
5689;DHT22;2869;50.432;8.680;2023-03-14T03:50:45;9.80;99.90
5689;DHT22;2869;50.432;8.680;2023-03-14T03:53:11;9.80;99.90
5689;DHT22;2869;50.432;8.680;2023-03-14T03:55:41;9.80;99.90
5689;DHT22;2869;50.432;8.680;2023-03-14T03:58:08;9.80;99.90
5689;DHT22;2869;50.432;8.680;2023-03-14T04:00:35;9.80;99.90
5689;DHT22;2869;50.432;8.680;2023-03-14T04:03:01;9.80;99.90
5689;DHT22;2869;50.432;8.680;2023-03-14T04:05:28;9.70;99.90
5689;DHT22;2869;50.432;8.680;2023-03-14T04:07:55;9.70;99.90
5689;DHT22;2869;50.432;8.680;2023-03-14T04:10:21;9.70;99.90
5689;DHT22;2869;50.432;8.680;2023-03-14T04:12:49;9.60;99.90
5689;DHT22;2869;50.432;8.680;2023-03-14T04:15:16;9.70;99.90
5689;DHT22;2869;50.432;8.680;2023-03-14T04:17:43;9.80;99.90
5689;DHT22;2869;50.432;8.680;2023-03-14T04:20:10;9.80;99.90
5689;DHT22;2869;50.432;8.680;2023-03-14T04:22:37;9.90;99.90
5689;DHT22;2869;50.432;8.680;2023-03-14T04:25:05;9.90;99.90
5689;DHT22;2869;50.432;8.680;2023-03-14T04:27:32;10.00;99.90
5689;DHT22;2869;50.432;8.680;2023-03-14T04:30:00;9.90;99.90
5689;DHT22;2869;50.432;8.680;2023-03-14T04:32:27;9.90;99.90
5689;DHT22;2869;50.432;8.680;2023-03-14T04:34:53;9.90;99.90
5689;DHT22;2869;50.432;8.680;2023-03-14T04:37:20;9.90;99.90
5689;DHT22;2869;50.432;8.680;2023-03-14T04:39:46;9.90;99.90
5689;DHT22;2869;50.432;8.680;2023-03-14T04:42:13;9.90;99.90
5689;DHT22;2869;50.432;8.680;2023-03-14T04:44:40;9.90;99.90
5689;DHT22;2869;50.432;8.680;2023-03-14T04:47:10;9.90;99.90
5689;DHT22;2869;50.432;8.680;2023-03-14T04:49:36;9.90;99.90
5689;DHT22;2869;50.432;8.680;2023-03-14T04:52:03;9.90;99.90
5689;DHT22;2869;50.432;8.680;2023-03-14T04:54:30;9.90;99.90
5689;DHT22;2869;50.432;8.680;2023-03-14T04:56:56;9.90;99.90
5689;DHT22;2869;50.432;8.680;2023-03-14T04:59:23;9.90;99.90
5689;DHT22;2869;50.432;8.680;2023-03-14T05:01:49;10.00;99.90
5689;DHT22;2869;50.432;8.680;2023-03-14T05:04:17;10.00;99.90
5689;DHT22;2869;50.432;8.680;2023-03-14T05:06:44;10.00;99.90
5689;DHT22;2869;50.432;8.680;2023-03-14T05:09:11;10.00;99.90
5689;DHT22;2869;50.432;8.680;2023-03-14T05:11:37;10.00;99.90
5689;DHT22;2869;50.432;8.680;2023-03-14T05:14:04;10.00;99.90
5689;DHT22;2869;50.432;8.680;2023-03-14T05:16:30;10.00;99.90
5689;DHT22;2869;50.432;8.680;2023-03-14T05:18:57;10.10;99.90
5689;DHT22;2869;50.432;8.680;2023-03-14T05:21:25;10.10;99.90
5689;DHT22;2869;50.432;8.680;2023-03-14T05:23:52;10.10;99.90
5689;DHT22;2869;50.432;8.680;2023-03-14T05:26:18;10.10;99.90
5689;DHT22;2869;50.432;8.680;2023-03-14T05:28:45;10.10;99.90
5689;DHT22;2869;50.432;8.680;2023-03-14T05:31:12;10.10;99.90
5689;DHT22;2869;50.432;8.680;2023-03-14T05:33:38;10.10;99.90
5689;DHT22;2869;50.432;8.680;2023-03-14T05:36:06;10.10;99.90
5689;DHT22;2869;50.432;8.680;2023-03-14T05:38:34;10.20;99.90
5689;DHT22;2869;50.432;8.680;2023-03-14T05:41:01;10.20;99.90
5689;DHT22;2869;50.432;8.680;2023-03-14T05:43:28;10.10;99.90
5689;DHT22;2869;50.432;8.680;2023-03-14T05:45:54;10.10;99.90
5689;DHT22;2869;50.432;8.680;2023-03-14T05:48:21;10.10;99.90
5689;DHT22;2869;50.432;8.680;2023-03-14T05:50:53;10.10;99.90
5689;DHT22;2869;50.432;8.680;2023-03-14T05:53:20;10.10;99.90
5689;DHT22;2869;50.432;8.680;2023-03-14T05:55:51;10.10;99.90
5689;DHT22;2869;50.432;8.680;2023-03-14T05:58:17;10.20;99.90
5689;DHT22;2869;50.432;8.680;2023-03-14T06:00:44;10.10;99.90
5689;DHT22;2869;50.432;8.680;2023-03-14T06:03:11;10.10;99.90
5689;DHT22;2869;50.432;8.680;2023-03-14T06:05:37;10.00;99.90
5689;DHT22;2869;50.432;8.680;2023-03-14T06:08:04;10.00;99.90
5689;DHT22;2869;50.432;8.680;2023-03-14T06:10:31;10.00;99.90
5689;DHT22;2869;50.432;8.680;2023-03-14T06:12:59;10.00;99.90
5689;DHT22;2869;50.432;8.680;2023-03-14T06:15:26;9.90;99.90
5689;DHT22;2869;50.432;8.680;2023-03-14T06:17:54;10.00;99.90
5689;DHT22;2869;50.432;8.680;2023-03-14T06:20:20;9.90;99.90
5689;DHT22;2869;50.432;8.680;2023-03-14T06:22:47;9.90;99.90
5689;DHT22;2869;50.432;8.680;2023-03-14T06:25:14;9.90;99.90
5689;DHT22;2869;50.432;8.680;2023-03-14T06:27:40;9.90;99.90
5689;DHT22;2869;50.432;8.680;2023-03-14T06:30:10;10.00;99.90
5689;DHT22;2869;50.432;8.680;2023-03-14T06:32:36;10.00;99.90
5689;DHT22;2869;50.432;8.680;2023-03-14T06:35:04;10.00;99.90
5689;DHT22;2869;50.432;8.680;2023-03-14T06:37:30;9.90;99.90
5689;DHT22;2869;50.432;8.680;2023-03-14T06:39:57;9.90;99.90
5689;DHT22;2869;50.432;8.680;2023-03-14T06:42:24;9.90;99.90
5689;DHT22;2869;50.432;8.680;2023-03-14T06:44:50;9.90;99.90
5689;DHT22;2869;50.432;8.680;2023-03-14T06:47:18;9.90;99.90
5689;DHT22;2869;50.432;8.680;2023-03-14T06:49:45;9.90;99.90
5689;DHT22;2869;50.432;8.680;2023-03-14T06:52:11;9.90;99.90
5689;DHT22;2869;50.432;8.680;2023-03-14T06:54:38;9.90;99.90
5689;DHT22;2869;50.432;8.680;2023-03-14T06:57:05;9.80;99.90
5689;DHT22;2869;50.432;8.680;2023-03-14T06:59:31;9.80;99.90
5689;DHT22;2869;50.432;8.680;2023-03-14T07:01:59;9.80;99.90
5689;DHT22;2869;50.432;8.680;2023-03-14T07:04:27;9.80;99.90
5689;DHT22;2869;50.432;8.680;2023-03-14T07:06:54;9.70;99.90
5689;DHT22;2869;50.432;8.680;2023-03-14T07:09:21;9.80;99.90
5689;DHT22;2869;50.432;8.680;2023-03-14T07:11:47;9.80;99.90
5689;DHT22;2869;50.432;8.680;2023-03-14T07:14:14;9.80;99.90
5689;DHT22;2869;50.432;8.680;2023-03-14T07:16:41;9.80;99.90
5689;DHT22;2869;50.432;8.680;2023-03-14T07:19:07;9.90;99.90
5689;DHT22;2869;50.432;8.680;2023-03-14T07:21:35;9.90;99.90
5689;DHT22;2869;50.432;8.680;2023-03-14T07:24:02;10.00;99.90
5689;DHT22;2869;50.432;8.680;2023-03-14T07:26:29;10.00;99.90
5689;DHT22;2869;50.432;8.680;2023-03-14T07:28:55;10.10;99.90
5689;DHT22;2869;50.432;8.680;2023-03-14T07:31:22;10.20;99.90
5689;DHT22;2869;50.432;8.680;2023-03-14T07:33:49;10.30;99.90
5689;DHT22;2869;50.432;8.680;2023-03-14T07:36:16;10.30;99.90
5689;DHT22;2869;50.432;8.680;2023-03-14T07:38:43;10.40;99.90
5689;DHT22;2869;50.432;8.680;2023-03-14T07:41:10;10.60;99.90
5689;DHT22;2869;50.432;8.680;2023-03-14T07:43:37;10.70;99.90
5689;DHT22;2869;50.432;8.680;2023-03-14T07:46:04;10.80;99.90
5689;DHT22;2869;50.432;8.680;2023-03-14T07:48:31;10.80;99.90
5689;DHT22;2869;50.432;8.680;2023-03-14T07:50:57;10.90;99.90
5689;DHT22;2869;50.432;8.680;2023-03-14T07:53:24;11.00;99.90
5689;DHT22;2869;50.432;8.680;2023-03-14T07:55:53;10.90;99.90
5689;DHT22;2869;50.432;8.680;2023-03-14T07:58:21;10.90;99.90
5689;DHT22;2869;50.432;8.680;2023-03-14T08:00:48;10.90;99.90
5689;DHT22;2869;50.432;8.680;2023-03-14T08:03:15;10.80;99.90
5689;DHT22;2869;50.432;8.680;2023-03-14T08:05:42;10.90;99.90
5689;DHT22;2869;50.432;8.680;2023-03-14T08:08:09;10.80;99.90
5689;DHT22;2869;50.432;8.680;2023-03-14T08:10:35;10.80;99.90
5689;DHT22;2869;50.432;8.680;2023-03-14T08:13:03;10.80;99.90
5689;DHT22;2869;50.432;8.680;2023-03-14T08:15:30;10.80;99.90
5689;DHT22;2869;50.432;8.680;2023-03-14T08:17:57;10.70;99.90
5689;DHT22;2869;50.432;8.680;2023-03-14T08:20:26;10.70;99.90
5689;DHT22;2869;50.432;8.680;2023-03-14T08:22:55;10.70;99.90
5689;DHT22;2869;50.432;8.680;2023-03-14T08:25:22;10.80;99.90
5689;DHT22;2869;50.432;8.680;2023-03-14T08:27:48;10.80;99.90
5689;DHT22;2869;50.432;8.680;2023-03-14T08:30:18;10.80;99.90
5689;DHT22;2869;50.432;8.680;2023-03-14T08:32:45;10.90;99.90
5689;DHT22;2869;50.432;8.680;2023-03-14T08:35:11;10.80;99.90
5689;DHT22;2869;50.432;8.680;2023-03-14T08:37:38;10.80;99.90
5689;DHT22;2869;50.432;8.680;2023-03-14T08:40:06;10.80;99.90
5689;DHT22;2869;50.432;8.680;2023-03-14T08:42:34;10.80;99.90
5689;DHT22;2869;50.432;8.680;2023-03-14T08:45:01;10.70;99.90
5689;DHT22;2869;50.432;8.680;2023-03-14T08:47:29;10.70;99.90
5689;DHT22;2869;50.432;8.680;2023-03-14T08:49:55;10.70;99.90
5689;DHT22;2869;50.432;8.680;2023-03-14T08:52:22;10.80;99.90
5689;DHT22;2869;50.432;8.680;2023-03-14T08:54:48;10.70;99.90
5689;DHT22;2869;50.432;8.680;2023-03-14T08:57:15;10.80;99.90
5689;DHT22;2869;50.432;8.680;2023-03-14T08:59:42;10.80;99.90
5689;DHT22;2869;50.432;8.680;2023-03-14T09:02:10;10.80;99.90
5689;DHT22;2869;50.432;8.680;2023-03-14T09:04:38;10.80;99.90
5689;DHT22;2869;50.432;8.680;2023-03-14T09:07:05;10.80;99.90
5689;DHT22;2869;50.432;8.680;2023-03-14T09:09:31;10.80;99.90
5689;DHT22;2869;50.432;8.680;2023-03-14T09:11:59;10.80;99.90
5689;DHT22;2869;50.432;8.680;2023-03-14T09:14:25;10.90;99.90
5689;DHT22;2869;50.432;8.680;2023-03-14T09:16:52;11.00;99.90
5689;DHT22;2869;50.432;8.680;2023-03-14T09:19:18;11.10;99.90
5689;DHT22;2869;50.432;8.680;2023-03-14T09:21:46;11.10;99.90
5689;DHT22;2869;50.432;8.680;2023-03-14T09:24:14;11.20;99.90
5689;DHT22;2869;50.432;8.680;2023-03-14T09:26:40;11.20;99.90
5689;DHT22;2869;50.432;8.680;2023-03-14T09:29:07;11.30;99.90
5689;DHT22;2869;50.432;8.680;2023-03-14T09:31:34;11.50;99.90
5689;DHT22;2869;50.432;8.680;2023-03-14T09:34:01;11.60;99.90
5689;DHT22;2869;50.432;8.680;2023-03-14T09:36:28;11.60;99.90
5689;DHT22;2869;50.432;8.680;2023-03-14T09:38:56;11.50;99.90
5689;DHT22;2869;50.432;8.680;2023-03-14T09:41:25;11.30;99.90
5689;DHT22;2869;50.432;8.680;2023-03-14T09:44:00;11.30;99.90
5689;DHT22;2869;50.432;8.680;2023-03-14T09:46:29;11.30;99.90
5689;DHT22;2869;50.432;8.680;2023-03-14T09:48:57;11.20;99.90
5689;DHT22;2869;50.432;8.680;2023-03-14T09:51:24;11.20;99.90
5689;DHT22;2869;50.432;8.680;2023-03-14T09:53:51;11.20;99.90
5689;DHT22;2869;50.432;8.680;2023-03-14T09:56:21;11.20;99.90
5689;DHT22;2869;50.432;8.680;2023-03-14T09:58:52;11.20;99.90
5689;DHT22;2869;50.432;8.680;2023-03-14T10:01:22;11.30;99.90
5689;DHT22;2869;50.432;8.680;2023-03-14T10:03:52;11.30;99.90
5689;DHT22;2869;50.432;8.680;2023-03-14T10:06:22;11.30;99.90
5689;DHT22;2869;50.432;8.680;2023-03-14T10:08:50;11.40;99.90
5689;DHT22;2869;50.432;8.680;2023-03-14T10:11:20;11.40;99.90
5689;DHT22;2869;50.432;8.680;2023-03-14T10:13:49;11.30;99.90
5689;DHT22;2869;50.432;8.680;2023-03-14T10:16:16;11.30;99.90
5689;DHT22;2869;50.432;8.680;2023-03-14T10:18:45;11.30;99.90
5689;DHT22;2869;50.432;8.680;2023-03-14T10:21:21;11.30;99.90
5689;DHT22;2869;50.432;8.680;2023-03-14T10:23:48;11.20;99.90
5689;DHT22;2869;50.432;8.680;2023-03-14T10:26:18;11.20;99.90
5689;DHT22;2869;50.432;8.680;2023-03-14T10:28:47;11.20;99.90
5689;DHT22;2869;50.432;8.680;2023-03-14T10:31:17;11.10;99.90
5689;DHT22;2869;50.432;8.680;2023-03-14T10:33:58;11.10;99.90
5689;DHT22;2869;50.432;8.680;2023-03-14T10:36:28;11.10;99.90
5689;DHT22;2869;50.432;8.680;2023-03-14T10:38:58;11.00;99.90
5689;DHT22;2869;50.432;8.680;2023-03-14T10:41:32;11.10;99.90
5689;DHT22;2869;50.432;8.680;2023-03-14T10:44:01;11.10;99.90
5689;DHT22;2869;50.432;8.680;2023-03-14T10:46:31;11.10;99.90
5689;DHT22;2869;50.432;8.680;2023-03-14T10:48:59;11.00;99.90
5689;DHT22;2869;50.432;8.680;2023-03-14T10:51:30;11.10;99.90
5689;DHT22;2869;50.432;8.680;2023-03-14T10:53:59;11.20;99.90
5689;DHT22;2869;50.432;8.680;2023-03-14T10:56:32;11.30;99.90
5689;DHT22;2869;50.432;8.680;2023-03-14T10:59:03;11.40;99.90
5689;DHT22;2869;50.432;8.680;2023-03-14T11:01:37;11.40;99.90
5689;DHT22;2869;50.432;8.680;2023-03-14T11:04:14;11.40;99.90
5689;DHT22;2869;50.432;8.680;2023-03-14T11:06:48;11.30;99.90
5689;DHT22;2869;50.432;8.680;2023-03-14T11:09:22;11.20;99.90
5689;DHT22;2869;50.432;8.680;2023-03-14T11:11:52;11.10;99.90
5689;DHT22;2869;50.432;8.680;2023-03-14T11:14:31;11.00;99.90
5689;DHT22;2869;50.432;8.680;2023-03-14T11:17:04;10.80;99.90
5689;DHT22;2869;50.432;8.680;2023-03-14T11:19:43;10.80;99.90
5689;DHT22;2869;50.432;8.680;2023-03-14T11:22:21;10.80;99.90
5689;DHT22;2869;50.432;8.680;2023-03-14T11:25:06;10.80;99.90
5689;DHT22;2869;50.432;8.680;2023-03-14T11:27:40;10.70;99.90
5689;DHT22;2869;50.432;8.680;2023-03-14T11:30:18;10.70;99.90
5689;DHT22;2869;50.432;8.680;2023-03-14T11:32:46;10.70;99.90
5689;DHT22;2869;50.432;8.680;2023-03-14T11:35:19;10.70;99.90
5689;DHT22;2869;50.432;8.680;2023-03-14T11:37:53;10.70;99.90
5689;DHT22;2869;50.432;8.680;2023-03-14T11:40:22;10.60;99.90
5689;DHT22;2869;50.432;8.680;2023-03-14T11:42:56;10.50;99.90
5689;DHT22;2869;50.432;8.680;2023-03-14T11:45:30;10.50;99.90
5689;DHT22;2869;50.432;8.680;2023-03-14T11:48:11;10.50;99.90
5689;DHT22;2869;50.432;8.680;2023-03-14T11:50:41;10.50;99.90
5689;DHT22;2869;50.432;8.680;2023-03-14T11:53:13;10.40;99.90
5689;DHT22;2869;50.432;8.680;2023-03-14T11:55:42;10.40;99.90
5689;DHT22;2869;50.432;8.680;2023-03-14T11:58:13;10.00;99.90
5689;DHT22;2869;50.432;8.680;2023-03-14T12:00:43;9.40;99.90
5689;DHT22;2869;50.432;8.680;2023-03-14T12:03:17;9.20;99.90
5689;DHT22;2869;50.432;8.680;2023-03-14T12:05:53;9.00;99.90
5689;DHT22;2869;50.432;8.680;2023-03-14T12:11:19;8.80;99.90
5689;DHT22;2869;50.432;8.680;2023-03-14T12:13:49;8.70;99.90
5689;DHT22;2869;50.432;8.680;2023-03-14T12:16:38;8.60;99.90
5689;DHT22;2869;50.432;8.680;2023-03-14T12:19:36;8.70;99.90
5689;DHT22;2869;50.432;8.680;2023-03-14T12:22:25;8.70;99.90
5689;DHT22;2869;50.432;8.680;2023-03-14T12:24:56;8.70;99.90
5689;DHT22;2869;50.432;8.680;2023-03-14T12:30:36;8.60;99.90
5689;DHT22;2869;50.432;8.680;2023-03-14T12:33:28;8.50;99.90
5689;DHT22;2869;50.432;8.680;2023-03-14T12:36:29;8.40;99.90
5689;DHT22;2869;50.432;8.680;2023-03-14T12:39:16;8.40;99.90
5689;DHT22;2869;50.432;8.680;2023-03-14T12:41:51;8.30;99.90
5689;DHT22;2869;50.432;8.680;2023-03-14T12:44:41;8.20;99.90
5689;DHT22;2869;50.432;8.680;2023-03-14T12:50:37;8.40;99.90
5689;DHT22;2869;50.432;8.680;2023-03-14T12:56:07;8.70;99.90
5689;DHT22;2869;50.432;8.680;2023-03-14T12:58:38;9.00;99.90
5689;DHT22;2869;50.432;8.680;2023-03-14T13:01:06;9.40;99.90
5689;DHT22;2869;50.432;8.680;2023-03-14T13:03:45;9.70;99.90
5689;DHT22;2869;50.432;8.680;2023-03-14T13:06:13;9.70;99.90
5689;DHT22;2869;50.432;8.680;2023-03-14T13:09:34;9.70;99.90
5689;DHT22;2869;50.432;8.680;2023-03-14T13:12:08;9.70;99.90
5689;DHT22;2869;50.432;8.680;2023-03-14T13:14:40;9.80;99.90
5689;DHT22;2869;50.432;8.680;2023-03-14T13:17:09;9.90;99.90
5689;DHT22;2869;50.432;8.680;2023-03-14T13:19:36;9.90;99.90
5689;DHT22;2869;50.432;8.680;2023-03-14T13:22:06;9.90;99.90
5689;DHT22;2869;50.432;8.680;2023-03-14T13:24:34;9.60;99.90
5689;DHT22;2869;50.432;8.680;2023-03-14T13:27:02;9.40;99.90
5689;DHT22;2869;50.432;8.680;2023-03-14T13:29:30;9.40;99.90
5689;DHT22;2869;50.432;8.680;2023-03-14T13:31:59;9.40;99.90
5689;DHT22;2869;50.432;8.680;2023-03-14T13:34:27;9.30;99.90
5689;DHT22;2869;50.432;8.680;2023-03-14T13:36:55;9.30;99.90
5689;DHT22;2869;50.432;8.680;2023-03-14T13:39:24;9.30;99.90
5689;DHT22;2869;50.432;8.680;2023-03-14T13:41:51;9.30;99.90
5689;DHT22;2869;50.432;8.680;2023-03-14T13:44:25;9.30;99.90
5689;DHT22;2869;50.432;8.680;2023-03-14T13:46:57;9.40;99.90
5689;DHT22;2869;50.432;8.680;2023-03-14T13:49:25;9.30;99.90
5689;DHT22;2869;50.432;8.680;2023-03-14T13:51:54;9.30;99.90
5689;DHT22;2869;50.432;8.680;2023-03-14T13:54:21;9.10;99.90
5689;DHT22;2869;50.432;8.680;2023-03-14T13:56:49;9.00;99.90
5689;DHT22;2869;50.432;8.680;2023-03-14T13:59:28;9.10;99.90
5689;DHT22;2869;50.432;8.680;2023-03-14T14:01:56;9.10;99.90
5689;DHT22;2869;50.432;8.680;2023-03-14T14:04:24;9.00;99.90
5689;DHT22;2869;50.432;8.680;2023-03-14T14:06:55;9.00;99.90
5689;DHT22;2869;50.432;8.680;2023-03-14T14:09:24;8.90;99.90
5689;DHT22;2869;50.432;8.680;2023-03-14T14:11:54;8.80;99.90
5689;DHT22;2869;50.432;8.680;2023-03-14T14:14:27;8.70;99.90
5689;DHT22;2869;50.432;8.680;2023-03-14T14:16:56;8.70;99.90
5689;DHT22;2869;50.432;8.680;2023-03-14T14:19:28;8.60;99.90
5689;DHT22;2869;50.432;8.680;2023-03-14T14:21:56;8.60;99.90
5689;DHT22;2869;50.432;8.680;2023-03-14T14:24:25;8.70;99.90
5689;DHT22;2869;50.432;8.680;2023-03-14T14:26:59;8.80;99.90
5689;DHT22;2869;50.432;8.680;2023-03-14T14:29:29;8.90;99.90
5689;DHT22;2869;50.432;8.680;2023-03-14T14:32:08;8.90;99.90
5689;DHT22;2869;50.432;8.680;2023-03-14T14:34:41;8.70;99.90
5689;DHT22;2869;50.432;8.680;2023-03-14T14:37:19;8.50;99.90
5689;DHT22;2869;50.432;8.680;2023-03-14T14:39:46;8.20;99.90
5689;DHT22;2869;50.432;8.680;2023-03-14T14:42:14;8.00;99.90
5689;DHT22;2869;50.432;8.680;2023-03-14T14:44:43;7.90;99.90
5689;DHT22;2869;50.432;8.680;2023-03-14T14:47:13;7.80;99.90
5689;DHT22;2869;50.432;8.680;2023-03-14T14:49:40;7.70;99.90
5689;DHT22;2869;50.432;8.680;2023-03-14T14:52:11;7.70;99.90
5689;DHT22;2869;50.432;8.680;2023-03-14T14:54:43;7.60;99.90
5689;DHT22;2869;50.432;8.680;2023-03-14T14:57:18;7.60;99.90
5689;DHT22;2869;50.432;8.680;2023-03-14T14:59:48;7.60;99.90
5689;DHT22;2869;50.432;8.680;2023-03-14T15:02:35;7.70;99.90
5689;DHT22;2869;50.432;8.680;2023-03-14T15:05:08;7.80;99.90
5689;DHT22;2869;50.432;8.680;2023-03-14T15:07:38;8.10;99.90
5689;DHT22;2869;50.432;8.680;2023-03-14T15:10:05;8.30;99.90
5689;DHT22;2869;50.432;8.680;2023-03-14T15:12:32;8.30;99.90
5689;DHT22;2869;50.432;8.680;2023-03-14T15:15:00;8.20;99.90
5689;DHT22;2869;50.432;8.680;2023-03-14T15:17:27;8.00;99.90
5689;DHT22;2869;50.432;8.680;2023-03-14T15:19:53;7.70;99.90
5689;DHT22;2869;50.432;8.680;2023-03-14T15:22:23;7.50;99.90
5689;DHT22;2869;50.432;8.680;2023-03-14T15:24:49;7.40;99.90
5689;DHT22;2869;50.432;8.680;2023-03-14T15:27:17;7.30;99.90
5689;DHT22;2869;50.432;8.680;2023-03-14T15:29:44;7.10;99.90
5689;DHT22;2869;50.432;8.680;2023-03-14T15:32:13;7.00;99.90
5689;DHT22;2869;50.432;8.680;2023-03-14T15:34:41;6.90;99.90
5689;DHT22;2869;50.432;8.680;2023-03-14T15:37:10;6.90;99.90
5689;DHT22;2869;50.432;8.680;2023-03-14T15:39:37;6.80;99.90
5689;DHT22;2869;50.432;8.680;2023-03-14T15:42:04;6.80;99.90
5689;DHT22;2869;50.432;8.680;2023-03-14T15:44:31;6.90;99.90
5689;DHT22;2869;50.432;8.680;2023-03-14T15:46:58;6.90;99.90
5689;DHT22;2869;50.432;8.680;2023-03-14T15:49:26;6.90;99.90
5689;DHT22;2869;50.432;8.680;2023-03-14T15:51:52;7.00;99.90
5689;DHT22;2869;50.432;8.680;2023-03-14T15:54:19;7.00;99.90
5689;DHT22;2869;50.432;8.680;2023-03-14T15:56:46;7.10;99.90
5689;DHT22;2869;50.432;8.680;2023-03-14T15:59:12;7.10;99.90
5689;DHT22;2869;50.432;8.680;2023-03-14T16:01:39;7.10;99.90
5689;DHT22;2869;50.432;8.680;2023-03-14T16:04:06;7.20;99.90
5689;DHT22;2869;50.432;8.680;2023-03-14T16:06:34;7.30;99.90
5689;DHT22;2869;50.432;8.680;2023-03-14T16:09:02;7.30;99.90
5689;DHT22;2869;50.432;8.680;2023-03-14T16:11:29;7.40;99.90
5689;DHT22;2869;50.432;8.680;2023-03-14T16:13:56;7.40;99.90
5689;DHT22;2869;50.432;8.680;2023-03-14T16:16:23;7.50;99.90
5689;DHT22;2869;50.432;8.680;2023-03-14T16:18:49;7.50;99.90
5689;DHT22;2869;50.432;8.680;2023-03-14T16:21:17;7.50;99.90
5689;DHT22;2869;50.432;8.680;2023-03-14T16:23:46;7.40;99.90
5689;DHT22;2869;50.432;8.680;2023-03-14T16:26:14;7.40;99.90
5689;DHT22;2869;50.432;8.680;2023-03-14T16:28:41;7.40;99.90
5689;DHT22;2869;50.432;8.680;2023-03-14T16:31:09;7.40;99.90
5689;DHT22;2869;50.432;8.680;2023-03-14T16:33:37;7.40;99.90
5689;DHT22;2869;50.432;8.680;2023-03-14T16:36:06;7.30;99.90